Terminal Aerodrome Forecast
Issued by NWS

Home | Current Version | Previous Version | Text Only | Print | Product List | Glossary On
Versions: 1 2 3 4 5 6 7 8 9 10 11
000
FTAK31 PAFA 141137
TAFAOR
TAF
PAOR 141137Z 1412/1512 VRB03KT P6SM SCT100
     FM141400 VRB03KT P6SM SCT025 OVC060
     FM141600 VRB03KT 5SM -SN BR SCT025 OVC045
     FM150800 VRB03KT P6SM VCSH SCT045 OVC090=

USA.gov is the U.S. government's official web portal to all federal, state and local government web resources and services.